Main page
METAR-TAF:

METAR-TAF

Airports :

Farnborough Airport

Farnborough, England

latitude: 51-17N, longitude: 000-46W, elevation: 65 m

Current weather observation

The report was made 23 minutes ago, at 19:20 UTC
Wind 3 kt from the South/Southwest
Temperature 15°C
Humidity 82%
Pressure 1015 hPa
Visibility 10 km or more

METAR: EGLF 211920Z AUTO 21003KT 9999 NCD 15/12 Q1015

Time: 20:43 (19:43 UTC)

Forecast

The report was made 2 hours and 50 minutes ago, at 16:53 UTC
Forecast valid from 21 at 18 UTC to 21 at 23 UTC
Wind 3 kt from variable directions
Visibility 10 km or more
no clouds below 1500 m and no cumulonimbus
Probability 30% :
Temporary
from 21 at 20 UTC to 21 at 23 UTC
Visibility: 8000 m

TAF: EGLF 211653Z 2118/2123 VRB03KT CAVOK PROB30 TEMPO 2120/2123 8000

Weather observations and forecasts of more than 4000 airports (METAR and TAF reports).

The available stations are represented by yellow and red dots on the map.

Hover mouse over dot to see the name of the station.

Then click to see weather observations and forecasts.

To change the map : click on the green buttons with a black cross to zoom in, on the green button with a dash to zoom out, or on the green arrows for adjacent maps.


METAR-TAF: